Eben Junction, Michigan
Current Conditions -  °F | °C
As of 1:57 AM on Sunday 26 Oct 2014 (Local Time) from KSAW Reporting Station
Clear Clear  
Wind Chill: 40°   Ceiling: Unl
Heat Index: 45°   Visibility: 10mi
Dew Point: 30°   Wind: 10mph
Humidity: 56%   Direction: 310°NW
Pressure: 29.85"   Gusts: 18mph
Location:  46.35°N, 86.97°W
Report Text: KSAW 260557Z AUTO 31009G16KT 10SM CLR 07/M01 A2985 RMK AO2 T00731010
Loading
Personal Weather Stations






























Interactive Weather Map
Tropical Storm Tracking
New forecast layout! Learn more

10-Day Weather Forecast

Advertisements
Track Severe Weather on mobile